Buies Creek, North Carolina
Current Conditions -  °F | °C
As of 3:55 AM on Saturday 25 Oct 2014 (Local Time) from KHRJ Reporting Station
Haze Haze  
Wind Chill: 45°   Ceiling: 200
Heat Index: 45°   Visibility: 2mi
Dew Point: 45°   Wind: 0mph
Humidity: 100%   Direction: NA
Pressure: 29.97"   Gusts: NA
Location:  35.41°N, 78.74°W
Report Text: KHRJ 250755Z AUTO 00000KT 2SM BR BKN002 07/07 A2997 RMK AO2 T00700070
Loading
Personal Weather Stations






























Interactive Weather Map
Tropical Storm Tracking
New forecast layout! Learn more

10-Day Weather Forecast

Advertisements
Track Severe Weather on mobile